MOOI WEER BOXTEL

Weerstation in Boxtel

Actuele weerinformatie en voorspellingen


Onweer radar Meer informatie blitzortung!


Regen radar Meer informatie rain snow radar


Meer informatie

Template documentation
and downloads

Weblog Hans on Experience

Profiel Hans Mestrum



Het weer levert geen direct gevaar op.    Er zijn geen waarschuwingen afgegeven.

METAR rapporten vliegvelden

   
EHEH - Eindhoven
Gewijzigd: 20-06-2018 14:25
Helder  
Helder  
   Wind: ZW 13 km/h
Wind: ZW 13 km/h
Temperatuur: 24°C
Dauwpunt: 16°C
Vochtigheid: 61%
Barometer: 1020 hPa
Bewolking: Helder
Zicht: meer dan 10 km
Bewolking: Helder
EHEH 201225Z AUTO 23007KT 140V310 9999 NCD 24/16 Q1020 BLU 23008KT 9999 FEW030
EHVK - Volkel
Gewijzigd: 20-06-2018 14:25
Helder  
Helder  
   Wind: WZW 14.8 km/h
Wind: WZW 14.8 km/h
Temperatuur: 24°C
Dauwpunt: 16°C
Vochtigheid: 61%
Barometer: 1020 hPa
Bewolking: Helder
Zicht: meer dan 10 km
Bewolking: Helder
EHVK 201225Z AUTO 24008KT 190V310 9999 NCD 24/16 Q1020 BLU 24008KT 9999 FEW025
EBAW - Antwerpen
Gewijzigd: 20-06-2018 14:20
Licht bewolkt  
Licht bewolkt  
   Wind: ZW 14.8 km/h
Wind: ZW 14.8 km/h
Temperatuur: 24°C
Dauwpunt: 15°C
Vochtigheid: 57%
Barometer: 1021 hPa
Bewolking: Licht bewolkt
Zicht: meer dan 10 km
Bewolking: Licht bewolkt 3400 ft
EBAW 201220Z 23008KT 200V260 9999 FEW034 24/15 Q1021 NOSIG
EHBK - Maastricht
Gewijzigd: 20-06-2018 14:25
Helder  
Helder  
   Wind: WZW 13 km/h
Wind: WZW 13 km/h
Temperatuur: 26°C
Dauwpunt: 16°C
Vochtigheid: 54%
Barometer: 1020 hPa
Bewolking: Helder
Zicht: meer dan 10 km
Bewolking: Helder
EHBK 201225Z AUTO 25007KT 190V350 9999 NCD 26/16 Q1020 NOSIG
ELLX - Luxemburg
Gewijzigd: 20-06-2018 14:50
Licht bewolkt  
Licht bewolkt  
   Wind: varieert 3.7 km/h
Wind: varieert 3.7 km/h
Temperatuur: 26°C
Dauwpunt: 13°C
Vochtigheid: 45%
Barometer: 1021 hPa
Bewolking: Licht bewolkt
Zicht: meer dan 10 km
Bewolking: Licht bewolkt 4500 ft
ELLX 201250Z VRB02KT 9999 FEW045 26/13 Q1021 NOSIG
 

Script ontwikkeld door  Saratoga-weather.org Aangepast voor de template door  Weerstation Leuven

U vindt ons ook hier:

Het Weer Aktueel

UK Metoffice

European Weather Network

Weather Underground

AWEKAS

Citizen Weather Observer Program (CWOP)

HAMweather, WeatherForYou, PWS Weather

Apparatuur in gebruik:

Weerstation
Davis Vue ISS

Weerprogramma
Meteobridge

Weercomputer
Asus WL -330N3G

Webleverancier
Weerhuisje.nl

Davis Vue ISS

Meteobridge

Asus WL -330N3G

Weerhuisje.nl